createdAt,value
2023-10-17T00:00:29.693Z,66.03
2023-10-17T00:03:39.445Z,66.13
2023-10-17T00:06:45.604Z,66.28
2023-10-17T00:09:52.584Z,66.06
2023-10-17T00:13:15.292Z,65.94
2023-10-17T00:16:22.457Z,65.72
2023-10-17T00:19:32.481Z,65.39
2023-10-17T00:22:38.536Z,65.00
2023-10-17T00:25:46.888Z,64.59
2023-10-17T00:28:54.520Z,64.95
2023-10-17T00:32:00.571Z,65.01
2023-10-17T00:35:14.379Z,64.92
2023-10-17T00:38:20.548Z,64.71
2023-10-17T00:41:31.400Z,64.66
2023-10-17T00:44:38.862Z,64.53
2023-10-17T00:47:45.139Z,64.61
2023-10-17T00:50:51.512Z,64.47
2023-10-17T00:54:01.876Z,64.93
2023-10-17T00:57:07.921Z,64.90
2023-10-17T01:00:24.611Z,65.04
2023-10-17T01:03:32.510Z,65.18
2023-10-17T01:06:39.050Z,65.02
2023-10-17T01:09:48.754Z,64.90
2023-10-17T01:12:55.571Z,65.07
2023-10-17T01:16:07.470Z,65.48
2023-10-17T01:19:16.337Z,65.62
2023-10-17T01:22:22.356Z,65.87
2023-10-17T01:25:30.772Z,65.97
2023-10-17T01:28:36.750Z,65.90
2023-10-17T01:31:44.437Z,65.94
2023-10-17T01:34:50.346Z,65.76
2023-10-17T01:37:57.211Z,65.72
2023-10-17T01:41:03.686Z,65.70
2023-10-17T01:44:10.399Z,65.63
2023-10-17T01:47:16.888Z,65.56
2023-10-17T01:50:25.740Z,65.66
2023-10-17T01:53:34.441Z,65.64
2023-10-17T01:56:41.808Z,65.53
2023-10-17T01:59:49.440Z,65.47
2023-10-17T02:02:56.623Z,65.57
2023-10-17T02:06:02.844Z,65.53
2023-10-17T02:09:24.256Z,65.39
2023-10-17T02:12:30.291Z,65.23
2023-10-17T02:15:39.600Z,65.26
2023-10-17T02:18:46.270Z,65.18
2023-10-17T02:21:53.252Z,65.07
2023-10-17T02:24:59.384Z,65.43
2023-10-17T02:28:06.200Z,65.44
2023-10-17T02:31:12.318Z,65.75
2023-10-17T02:34:23.404Z,65.52
2023-10-17T02:37:31.764Z,65.35
2023-10-17T02:40:39.890Z,65.41
2023-10-17T02:43:46.483Z,65.53
2023-10-17T02:46:52.841Z,65.56
2023-10-17T02:49:58.516Z,65.76
2023-10-17T02:53:04.587Z,66.03
2023-10-17T02:56:20.058Z,65.84
2023-10-17T02:59:26.190Z,65.78
2023-10-17T03:02:38.827Z,65.62
2023-10-17T03:05:49.920Z,65.84
2023-10-17T03:09:02.137Z,65.74
2023-10-17T03:12:20.592Z,65.73
2023-10-17T03:15:31.197Z,65.52
2023-10-17T03:18:39.248Z,65.52
2023-10-17T03:21:45.625Z,65.46
2023-10-17T03:24:52.907Z,65.45
2023-10-17T03:28:01.911Z,65.73
2023-10-17T03:31:12.458Z,65.85
2023-10-17T03:34:22.874Z,65.54
2023-10-17T03:37:31.327Z,65.73
2023-10-17T03:40:42.368Z,65.79
2023-10-17T03:43:53.314Z,65.92
2023-10-17T03:47:00.472Z,65.65
2023-10-17T03:50:09.294Z,65.36
2023-10-17T03:53:17.169Z,65.25
2023-10-17T03:56:26.196Z,64.95
2023-10-17T03:59:40.049Z,64.83
2023-10-17T04:02:46.394Z,64.95
2023-10-17T04:06:02.866Z,64.93
2023-10-17T04:09:26.906Z,64.68
2023-10-17T04:12:39.877Z,64.22
2023-10-17T04:15:46.571Z,63.90
2023-10-17T04:18:56.759Z,64.01
2023-10-17T04:22:20.769Z,64.17
2023-10-17T04:25:35.763Z,63.96
2023-10-17T04:28:42.399Z,63.78
2023-10-17T04:31:49.008Z,63.70
2023-10-17T04:34:56.988Z,63.47
2023-10-17T04:38:17.929Z,63.74
2023-10-17T04:41:37.446Z,64.10
2023-10-17T04:44:51.638Z,63.74
2023-10-17T04:51:38.120Z,63.20
2023-10-17T04:54:44.865Z,63.21
2023-10-17T04:57:57.602Z,62.99
2023-10-17T05:01:19.764Z,62.63
2023-10-17T05:04:35.323Z,62.72
2023-10-17T05:08:05.856Z,62.64
2023-10-17T05:11:29.518Z,63.17
2023-10-17T05:14:52.898Z,63.48
2023-10-17T05:18:16.038Z,63.46
2023-10-17T05:21:40.082Z,63.66
2023-10-17T05:25:05.010Z,64.41
2023-10-17T05:28:28.342Z,65.29
2023-10-17T05:31:51.209Z,65.58
2023-10-17T05:35:14.557Z,65.77
2023-10-17T05:38:37.591Z,65.86
2023-10-17T05:42:01.058Z,66.13
2023-10-17T05:45:25.823Z,66.51
2023-10-17T05:48:49.516Z,66.74
2023-10-17T05:52:12.809Z,66.88
2023-10-17T05:55:36.673Z,66.90
2023-10-17T05:59:00.052Z,66.82
2023-10-17T06:02:23.834Z,66.70
2023-10-17T06:05:47.295Z,66.55
2023-10-17T06:09:11.766Z,66.42
2023-10-17T06:12:35.271Z,66.47
2023-10-17T06:15:59.555Z,66.62
2023-10-17T06:19:09.421Z,66.71
2023-10-17T06:22:33.278Z,66.57
2023-10-17T06:25:56.952Z,66.60
2023-10-17T06:29:16.737Z,66.54
2023-10-17T06:32:36.359Z,66.58
2023-10-17T06:35:48.499Z,66.60
2023-10-17T06:38:55.919Z,66.29
2023-10-17T06:42:10.735Z,66.51
2023-10-17T06:45:20.023Z,67.42
2023-10-17T06:48:37.655Z,67.37
2023-10-17T06:51:51.430Z,67.38
2023-10-17T06:55:00.332Z,67.46
2023-10-17T06:58:11.305Z,67.87
2023-10-17T07:01:27.156Z,67.43
2023-10-17T07:04:34.721Z,67.21
2023-10-17T07:07:41.664Z,67.07
2023-10-17T07:11:00.120Z,66.86
2023-10-17T07:14:23.566Z,66.82
2023-10-17T07:17:30.281Z,66.85
2023-10-17T07:21:08.298Z,67.02
2023-10-17T07:24:18.414Z,67.31
2023-10-17T07:27:36.738Z,67.41
2023-10-17T07:30:50.787Z,67.57
2023-10-17T07:34:08.435Z,67.66
2023-10-17T07:37:24.102Z,67.74
2023-10-17T07:40:35.060Z,67.77
2023-10-17T07:43:45.187Z,67.81
2023-10-17T07:46:55.052Z,67.92
2023-10-17T07:50:01.704Z,68.00
2023-10-17T07:53:07.997Z,67.91
2023-10-17T07:56:21.255Z,67.86
2023-10-17T07:59:33.452Z,67.82
2023-10-17T08:02:41.703Z,67.59
2023-10-17T08:06:00.484Z,67.24
2023-10-17T08:09:23.000Z,66.70
2023-10-17T08:12:35.787Z,66.41
2023-10-17T08:15:52.890Z,64.96
2023-10-17T08:19:14.537Z,63.85
2023-10-17T08:22:21.742Z,63.07
2023-10-17T08:25:31.846Z,62.68
2023-10-17T08:28:38.860Z,62.22
2023-10-17T08:31:46.670Z,63.00
2023-10-17T08:34:59.962Z,62.64
2023-10-17T08:38:06.225Z,61.05
2023-10-17T08:41:10.706Z,61.91
2023-10-17T08:44:16.831Z,61.08
2023-10-17T08:47:26.752Z,60.63
2023-10-17T08:50:38.964Z,61.02
2023-10-17T08:53:45.584Z,60.86
2023-10-17T08:56:51.718Z,59.97
2023-10-17T09:00:14.941Z,58.15
2023-10-17T09:03:30.197Z,58.14
2023-10-17T09:06:50.252Z,59.23
2023-10-17T09:09:56.896Z,61.25
2023-10-17T09:13:32.205Z,62.40
2023-10-17T09:16:42.500Z,61.69
2023-10-17T09:19:52.463Z,60.74
2023-10-17T09:22:59.064Z,59.05
2023-10-17T09:26:09.180Z,57.35
2023-10-17T09:29:15.481Z,57.67
2023-10-17T09:32:33.552Z,58.62
2023-10-17T09:35:40.423Z,61.89
2023-10-17T09:38:47.198Z,61.61
2023-10-17T09:41:53.354Z,61.01
2023-10-17T09:45:00.335Z,58.49
2023-10-17T09:48:09.176Z,57.02
2023-10-17T09:51:27.403Z,56.79
2023-10-17T09:54:42.208Z,58.35
2023-10-17T09:57:57.930Z,61.22
2023-10-17T10:01:07.319Z,61.83
2023-10-17T10:04:13.717Z,60.90
2023-10-17T10:07:27.669Z,57.97
2023-10-17T10:10:53.028Z,56.41
2023-10-17T10:14:15.065Z,56.95
2023-10-17T10:17:21.325Z,57.54
2023-10-17T10:20:27.631Z,60.53
2023-10-17T10:23:47.880Z,60.20
2023-10-17T10:27:22.269Z,58.64
2023-10-17T10:30:45.305Z,57.15
2023-10-17T10:33:52.426Z,58.00
2023-10-17T10:37:01.546Z,57.17
2023-10-17T10:40:19.153Z,58.67
2023-10-17T10:43:26.875Z,58.82
2023-10-17T10:46:34.460Z,59.04
2023-10-17T10:49:42.219Z,61.31
2023-10-17T10:52:49.172Z,60.58
2023-10-17T10:56:02.634Z,57.09
2023-10-17T10:59:08.842Z,56.76
2023-10-17T11:02:15.007Z,56.15
2023-10-17T11:05:21.410Z,57.62
2023-10-17T11:08:28.001Z,58.14
2023-10-17T11:11:34.341Z,58.92
2023-10-17T11:14:48.471Z,58.50
2023-10-17T11:18:09.173Z,58.85
2023-10-17T11:21:16.154Z,59.26
2023-10-17T11:24:24.770Z,59.13
2023-10-17T11:27:34.195Z,59.96
2023-10-17T11:30:42.588Z,59.43
2023-10-17T11:33:54.655Z,58.77
2023-10-17T11:37:12.698Z,58.33
2023-10-17T11:40:32.378Z,58.83
2023-10-17T11:43:43.790Z,58.36
2023-10-17T11:46:57.392Z,57.26
2023-10-17T11:50:06.958Z,58.14
2023-10-17T11:53:17.092Z,56.27
2023-10-17T11:56:25.052Z,55.99
2023-10-17T11:59:30.997Z,56.44
2023-10-17T12:02:43.914Z,52.98
2023-10-17T12:05:50.097Z,53.18
2023-10-17T12:08:57.435Z,54.42
2023-10-17T12:12:04.438Z,55.06
2023-10-17T12:15:14.626Z,53.34
2023-10-17T12:18:20.858Z,53.60
2023-10-17T12:21:26.721Z,51.41
2023-10-17T12:24:36.408Z,50.95
2023-10-17T12:27:42.425Z,51.21
2023-10-17T12:30:48.813Z,52.51
2023-10-17T12:33:54.743Z,53.47
2023-10-17T12:37:04.783Z,53.72
2023-10-17T12:40:20.381Z,52.85
2023-10-17T12:43:26.644Z,53.40
2023-10-17T12:46:32.130Z,54.04
2023-10-17T12:49:40.924Z,52.89
2023-10-17T12:52:46.858Z,53.77
2023-10-17T12:55:52.512Z,54.84
2023-10-17T12:58:58.257Z,55.28
2023-10-17T13:02:03.831Z,53.39
2023-10-17T13:05:11.499Z,52.87
2023-10-17T13:08:17.874Z,53.25
2023-10-17T13:11:23.983Z,52.17
2023-10-17T13:14:28.717Z,51.67
2023-10-17T13:17:34.671Z,53.51
2023-10-17T13:20:55.680Z,52.50
2023-10-17T13:24:10.927Z,53.05
2023-10-17T13:27:20.856Z,52.84
2023-10-17T13:30:28.522Z,52.35
2023-10-17T13:33:34.746Z,52.80
2023-10-17T13:36:40.757Z,52.49
2023-10-17T13:39:47.442Z,54.08
2023-10-17T13:42:54.247Z,52.42
2023-10-17T13:46:01.530Z,53.68
2023-10-17T13:49:08.418Z,53.62
2023-10-17T13:52:19.159Z,54.68
2023-10-17T13:55:28.715Z,54.84
2023-10-17T13:58:37.818Z,53.81
2023-10-17T14:01:48.155Z,54.04
2023-10-17T14:04:54.352Z,53.76
2023-10-17T14:07:58.717Z,53.06
2023-10-17T14:11:08.346Z,52.67
2023-10-17T14:14:14.915Z,53.48
2023-10-17T14:17:22.145Z,53.21
2023-10-17T14:20:39.947Z,54.94
2023-10-17T14:23:59.162Z,55.95
2023-10-17T14:27:13.548Z,56.27
2023-10-17T14:30:19.922Z,56.06
2023-10-17T14:33:26.394Z,55.74
2023-10-17T14:36:32.560Z,56.06
2023-10-17T14:39:38.932Z,55.65
2023-10-17T14:42:43.053Z,56.26
2023-10-17T14:45:49.005Z,56.54
2023-10-17T14:48:54.869Z,58.73
2023-10-17T14:52:01.117Z,60.19
2023-10-17T14:55:15.334Z,61.38
2023-10-17T14:58:21.452Z,60.18
2023-10-17T15:01:28.123Z,59.75
2023-10-17T15:04:36.688Z,60.54
2023-10-17T15:07:43.137Z,61.02
2023-10-17T15:10:49.980Z,60.25
2023-10-17T15:13:55.682Z,60.49
2023-10-17T15:17:01.898Z,60.58
2023-10-17T15:20:07.868Z,60.87
2023-10-17T15:23:13.851Z,60.57
2023-10-17T15:26:20.634Z,61.60
2023-10-17T15:29:27.041Z,63.68
2023-10-17T15:32:33.023Z,66.78
2023-10-17T15:35:39.833Z,66.20
2023-10-17T15:38:46.628Z,63.24
2023-10-17T15:41:54.862Z,61.43
2023-10-17T15:45:01.088Z,59.22
2023-10-17T15:48:08.339Z,58.76
2023-10-17T15:51:21.681Z,60.00
2023-10-17T15:54:27.799Z,62.16
2023-10-17T15:57:33.984Z,64.94
2023-10-17T16:00:38.330Z,66.35
2023-10-17T16:03:48.153Z,65.86
2023-10-17T16:06:54.531Z,64.63
2023-10-17T16:09:59.082Z,63.15
2023-10-17T16:13:05.301Z,62.70
2023-10-17T16:16:10.327Z,61.45
2023-10-17T16:19:16.782Z,61.36
2023-10-17T16:22:22.748Z,61.12
2023-10-17T16:25:31.232Z,60.85
2023-10-17T16:28:37.637Z,60.49
2023-10-17T16:31:43.653Z,59.32
2023-10-17T16:34:49.553Z,60.07
2023-10-17T16:37:55.311Z,61.08
2023-10-17T16:41:02.103Z,62.00
2023-10-17T16:44:08.475Z,64.50
2023-10-17T16:47:15.193Z,65.65
2023-10-17T16:50:24.475Z,64.97
2023-10-17T16:53:30.610Z,64.19
2023-10-17T16:56:36.801Z,63.58
2023-10-17T16:59:41.570Z,63.23
2023-10-17T17:02:48.086Z,62.91
2023-10-17T17:05:53.876Z,62.39
2023-10-17T17:09:00.452Z,62.10
2023-10-17T17:12:07.592Z,62.22
2023-10-17T17:15:14.630Z,61.75
2023-10-17T17:18:40.267Z,61.63
2023-10-17T17:21:46.376Z,61.49
2023-10-17T17:24:52.927Z,61.15
2023-10-17T17:27:58.967Z,60.88
2023-10-17T17:31:09.528Z,60.74
2023-10-17T17:34:15.985Z,60.50
2023-10-17T17:37:21.963Z,60.41
2023-10-17T17:40:27.823Z,60.57
2023-10-17T17:43:33.387Z,60.32
2023-10-17T17:46:39.242Z,60.21
2023-10-17T17:49:46.997Z,60.15
2023-10-17T17:52:52.954Z,60.32
2023-10-17T17:55:58.832Z,60.12
2023-10-17T17:59:05.364Z,59.99
2023-10-17T18:02:11.650Z,60.02
2023-10-17T18:05:22.094Z,60.11
2023-10-17T18:08:28.561Z,60.42
2023-10-17T18:11:35.831Z,60.15
2023-10-17T18:14:41.337Z,60.31
2023-10-17T18:17:48.449Z,60.42
2023-10-17T18:21:05.217Z,60.26
2023-10-17T18:24:12.010Z,60.12
2023-10-17T18:27:17.740Z,60.10
2023-10-17T18:30:24.379Z,59.96
2023-10-17T18:33:30.434Z,59.82
2023-10-17T18:36:37.080Z,59.78
2023-10-17T18:39:43.034Z,59.81
2023-10-17T18:42:51.149Z,59.85
2023-10-17T18:45:57.126Z,59.80
2023-10-17T18:49:04.260Z,59.80
2023-10-17T18:52:11.593Z,59.89
2023-10-17T18:55:17.788Z,60.00
2023-10-17T18:58:23.944Z,59.74
2023-10-17T19:01:29.688Z,59.61
2023-10-17T19:04:35.969Z,58.72
2023-10-17T19:07:41.594Z,59.03
2023-10-17T19:10:48.958Z,60.28
2023-10-17T19:13:56.170Z,61.48
2023-10-17T19:17:02.395Z,64.17
2023-10-17T19:20:10.944Z,65.34
2023-10-17T19:23:17.635Z,64.68
2023-10-17T19:26:23.735Z,64.12
2023-10-17T19:29:29.880Z,63.71
2023-10-17T19:32:35.934Z,63.46
2023-10-17T19:35:41.772Z,63.13
2023-10-17T19:38:47.513Z,63.01
2023-10-17T19:41:53.581Z,62.93
2023-10-17T19:44:59.326Z,63.00
2023-10-17T19:48:06.051Z,62.99
2023-10-17T19:51:12.759Z,63.13
2023-10-17T19:54:18.562Z,63.26
2023-10-17T19:57:24.633Z,63.35
2023-10-17T20:00:32.383Z,63.25
2023-10-17T20:03:38.480Z,63.40
2023-10-17T20:06:45.007Z,63.41
2023-10-17T20:09:50.955Z,63.37
2023-10-17T20:12:56.848Z,63.31
2023-10-17T20:16:03.015Z,63.26
2023-10-17T20:19:09.379Z,63.05
2023-10-17T20:22:15.979Z,62.58
2023-10-17T20:25:23.173Z,62.33
2023-10-17T20:28:29.020Z,62.14
2023-10-17T20:31:35.228Z,61.97
2023-10-17T20:34:41.406Z,61.80
2023-10-17T20:37:47.404Z,61.72
2023-10-17T20:41:01.153Z,61.78
2023-10-17T20:44:07.344Z,61.68
2023-10-17T20:47:13.281Z,61.57
2023-10-17T20:50:21.243Z,61.35
2023-10-17T20:53:27.658Z,61.28
2023-10-17T20:56:41.806Z,61.36
2023-10-17T20:59:48.594Z,61.55
2023-10-17T21:02:54.529Z,61.35
2023-10-17T21:06:00.502Z,61.32
2023-10-17T21:09:07.199Z,61.39
2023-10-17T21:12:14.291Z,61.26
2023-10-17T21:15:20.410Z,61.14
2023-10-17T21:18:27.459Z,61.41
2023-10-17T21:21:33.503Z,61.55
2023-10-17T21:24:39.682Z,61.56
2023-10-17T21:27:45.642Z,61.86
2023-10-17T21:30:51.894Z,61.11
2023-10-17T21:33:57.666Z,60.70
2023-10-17T21:37:03.338Z,60.59
2023-10-17T21:40:13.771Z,60.48
2023-10-17T21:43:19.822Z,60.34
2023-10-17T21:46:25.629Z,60.39
2023-10-17T21:49:32.344Z,60.47
2023-10-17T21:52:38.379Z,60.44
2023-10-17T21:55:44.878Z,60.46
2023-10-17T21:58:51.130Z,60.57
2023-10-17T22:01:58.000Z,60.47
2023-10-17T22:05:05.140Z,60.32
2023-10-17T22:08:16.135Z,60.38
2023-10-17T22:11:21.993Z,60.54
2023-10-17T22:14:28.422Z,60.77
2023-10-17T22:17:34.918Z,61.13
2023-10-17T22:20:41.407Z,61.45
2023-10-17T22:23:47.986Z,62.22
2023-10-17T22:26:53.876Z,62.94
2023-10-17T22:30:00.236Z,62.90
2023-10-17T22:33:06.809Z,62.19
2023-10-17T22:36:14.303Z,61.74
2023-10-17T22:39:20.131Z,61.53
2023-10-17T22:42:25.649Z,61.58
2023-10-17T22:45:32.361Z,62.07
2023-10-17T22:48:39.226Z,61.93
2023-10-17T22:51:45.009Z,61.25
2023-10-17T22:54:51.182Z,60.87
2023-10-17T22:57:57.491Z,60.70
2023-10-17T23:01:03.779Z,60.85
2023-10-17T23:04:10.258Z,60.93
2023-10-17T23:07:16.384Z,61.00
2023-10-17T23:10:22.604Z,60.99
2023-10-17T23:13:27.625Z,61.05
2023-10-17T23:16:33.763Z,61.23
2023-10-17T23:19:41.893Z,60.97
2023-10-17T23:22:49.676Z,61.17
2023-10-17T23:25:56.226Z,61.65
2023-10-17T23:29:01.868Z,62.58
2023-10-17T23:32:08.284Z,63.30
2023-10-17T23:35:16.155Z,63.81
2023-10-17T23:38:22.939Z,64.37
2023-10-17T23:41:28.806Z,64.54
2023-10-17T23:44:34.588Z,64.70
2023-10-17T23:47:41.558Z,64.54
2023-10-17T23:50:47.591Z,64.38
2023-10-17T23:53:53.394Z,64.08
2023-10-17T23:56:59.564Z,63.63
